createdAt,value
2023-04-24T00:00:10.869Z,10.50
2023-04-24T00:02:39.812Z,10.50
2023-04-24T00:05:08.112Z,10.40
2023-04-24T00:07:35.383Z,10.30
2023-04-24T00:10:02.026Z,10.30
2023-04-24T00:12:28.672Z,10.30
2023-04-24T00:14:55.358Z,10.30
2023-04-24T00:17:22.075Z,10.20
2023-04-24T00:19:49.684Z,10.20
2023-04-24T00:22:16.340Z,10.20
2023-04-24T00:24:42.970Z,10.20
2023-04-24T00:27:09.661Z,10.20
2023-04-24T00:29:36.356Z,10.10
2023-04-24T00:32:03.689Z,10.10
2023-04-24T00:34:30.412Z,10.10
2023-04-24T00:36:57.136Z,10.10
2023-04-24T00:39:23.985Z,10.10
2023-04-24T00:41:51.879Z,10.00
2023-04-24T00:44:18.556Z,10.00
2023-04-24T00:46:45.614Z,10.00
2023-04-24T00:49:13.317Z,10.00
2023-04-24T00:51:41.929Z,10.10
2023-04-24T00:54:08.542Z,10.10
2023-04-24T00:56:35.429Z,10.10
2023-04-24T00:59:02.440Z,10.10
2023-04-24T01:01:29.348Z,10.10
2023-04-24T01:03:58.696Z,10.10
2023-04-24T01:06:29.079Z,10.10
2023-04-24T01:08:56.412Z,10.10
2023-04-24T01:11:23.154Z,10.20
2023-04-24T01:13:49.854Z,10.20
2023-04-24T01:16:18.407Z,10.10
2023-04-24T01:18:46.896Z,10.20
2023-04-24T01:21:17.372Z,10.10
2023-04-24T01:23:47.212Z,10.10
2023-04-24T01:26:17.689Z,10.10
2023-04-24T01:28:44.433Z,10.10
2023-04-24T01:31:11.142Z,10.00
2023-04-24T01:33:38.165Z,10.00
2023-04-24T01:36:05.407Z,10.00
2023-04-24T01:38:32.086Z,10.00
2023-04-24T01:40:58.814Z,9.90
2023-04-24T01:43:25.764Z,9.90
2023-04-24T01:45:52.403Z,9.90
2023-04-24T01:48:19.108Z,9.90
2023-04-24T01:50:45.720Z,9.80
2023-04-24T01:53:12.756Z,9.80
2023-04-24T01:55:39.523Z,9.80
2023-04-24T01:58:06.539Z,9.80
2023-04-24T02:00:33.234Z,9.80
2023-04-24T02:03:00.213Z,9.80
2023-04-24T02:05:27.050Z,9.70
2023-04-24T02:07:53.864Z,9.70
2023-04-24T02:10:20.603Z,9.70
2023-04-24T02:12:47.219Z,9.70
2023-04-24T02:15:13.873Z,9.70
2023-04-24T02:17:40.717Z,9.60
2023-04-24T02:20:08.660Z,9.60
2023-04-24T02:22:35.846Z,9.60
2023-04-24T02:25:02.779Z,9.60
2023-04-24T02:27:29.476Z,9.60
2023-04-24T02:29:56.327Z,9.50
2023-04-24T02:32:23.090Z,9.50
2023-04-24T02:34:49.715Z,9.50
2023-04-24T02:37:16.363Z,9.50
2023-04-24T02:39:43.159Z,9.50
2023-04-24T02:42:09.988Z,9.50
2023-04-24T02:44:36.652Z,9.50
2023-04-24T02:47:03.632Z,9.40
2023-04-24T02:49:30.350Z,9.40
2023-04-24T02:51:57.100Z,9.40
2023-04-24T02:54:23.705Z,9.40
2023-04-24T02:56:50.702Z,9.40
2023-04-24T02:59:17.366Z,9.40
2023-04-24T03:01:44.062Z,9.30
2023-04-24T03:04:11.419Z,9.30
2023-04-24T03:06:38.705Z,9.30
2023-04-24T03:09:05.722Z,9.30
2023-04-24T03:11:32.358Z,9.30
2023-04-24T03:13:59.025Z,9.30
2023-04-24T03:16:26.403Z,9.30
2023-04-24T03:18:53.097Z,9.20
2023-04-24T03:21:19.830Z,9.20
2023-04-24T03:23:46.495Z,9.20
2023-04-24T03:26:13.159Z,9.20
2023-04-24T03:28:39.778Z,9.20
2023-04-24T03:31:06.475Z,9.10
2023-04-24T03:33:33.292Z,9.10
2023-04-24T03:36:00.002Z,9.00
2023-04-24T03:38:26.654Z,9.00
2023-04-24T03:40:53.445Z,9.00
2023-04-24T03:43:20.220Z,9.00
2023-04-24T03:45:46.875Z,9.00
2023-04-24T03:48:13.634Z,9.00
2023-04-24T03:50:40.308Z,9.00
2023-04-24T03:53:07.029Z,9.00
2023-04-24T03:55:33.715Z,9.00
2023-04-24T03:58:00.385Z,9.00
2023-04-24T04:00:27.261Z,8.90
2023-04-24T04:02:54.315Z,8.90
2023-04-24T04:05:21.388Z,8.90
2023-04-24T04:07:48.114Z,8.90
2023-04-24T04:10:15.247Z,8.90
2023-04-24T04:12:41.874Z,8.90
2023-04-24T04:15:08.717Z,8.90
2023-04-24T04:17:35.517Z,8.90
2023-04-24T04:20:02.539Z,8.90
2023-04-24T04:22:29.185Z,8.90
2023-04-24T04:24:55.800Z,8.90
2023-04-24T04:27:22.573Z,8.90
2023-04-24T04:29:49.490Z,9.00
2023-04-24T04:32:17.156Z,9.00
2023-04-24T04:34:46.363Z,9.00
2023-04-24T04:37:13.791Z,9.00
2023-04-24T04:39:40.920Z,9.00
2023-04-24T04:42:07.725Z,9.00
2023-04-24T04:44:36.783Z,9.00
2023-04-24T04:47:06.433Z,9.00
2023-04-24T04:49:33.706Z,9.00
2023-04-24T04:52:00.421Z,9.00
2023-04-24T04:54:27.235Z,9.00
2023-04-24T04:56:54.048Z,9.00
2023-04-24T04:59:20.855Z,9.00
2023-04-24T05:01:47.932Z,9.00
2023-04-24T05:04:14.697Z,9.00
2023-04-24T05:06:41.490Z,9.10
2023-04-24T05:09:08.515Z,9.10
2023-04-24T05:11:35.183Z,9.10
2023-04-24T05:14:02.064Z,9.10
2023-04-24T05:16:28.800Z,9.10
2023-04-24T05:18:55.615Z,9.10
2023-04-24T05:21:22.353Z,9.10
2023-04-24T05:23:48.992Z,9.10
2023-04-24T05:26:16.474Z,9.10
2023-04-24T05:28:43.135Z,9.10
2023-04-24T05:31:09.853Z,9.10
2023-04-24T05:33:36.555Z,9.10
2023-04-24T05:36:03.264Z,9.10
2023-04-24T05:38:29.911Z,9.10
2023-04-24T05:40:56.579Z,9.20
2023-04-24T05:43:23.239Z,9.20
2023-04-24T05:45:49.909Z,9.20
2023-04-24T05:48:16.823Z,9.20
2023-04-24T05:50:43.485Z,9.20
2023-04-24T05:53:11.525Z,9.20
2023-04-24T05:55:38.298Z,9.30
2023-04-24T05:58:04.977Z,9.30
2023-04-24T06:00:32.135Z,9.40
2023-04-24T06:02:59.213Z,9.40
2023-04-24T06:05:26.291Z,9.50
2023-04-24T06:07:53.160Z,9.50
2023-04-24T06:10:19.866Z,9.60
2023-04-24T06:12:46.556Z,9.60
2023-04-24T06:15:13.975Z,9.60
2023-04-24T06:17:41.071Z,9.70
2023-04-24T06:20:09.004Z,9.70
2023-04-24T06:22:36.423Z,9.80
2023-04-24T06:25:03.381Z,9.80
2023-04-24T06:27:30.042Z,9.80
2023-04-24T06:29:56.902Z,9.80
2023-04-24T06:32:25.296Z,9.80
2023-04-24T06:34:53.686Z,9.80
2023-04-24T06:37:21.567Z,9.80
2023-04-24T06:39:48.452Z,9.90
2023-04-24T06:42:15.209Z,9.90
2023-04-24T06:44:42.165Z,9.90
2023-04-24T06:47:10.162Z,9.90
2023-04-24T06:49:38.070Z,10.00
2023-04-24T06:52:05.174Z,9.90
2023-04-24T06:54:32.154Z,9.90
2023-04-24T06:56:58.995Z,9.90
2023-04-24T06:59:26.114Z,9.90
2023-04-24T07:01:55.192Z,10.00
2023-04-24T07:04:22.956Z,10.00
2023-04-24T07:06:53.638Z,10.00
2023-04-24T07:09:21.316Z,10.10
2023-04-24T07:11:48.158Z,10.10
2023-04-24T07:14:14.866Z,10.20
2023-04-24T07:16:41.638Z,10.30
2023-04-24T07:19:08.390Z,10.40
2023-04-24T07:21:35.012Z,10.40
2023-04-24T07:24:02.314Z,10.50
2023-04-24T07:26:30.711Z,10.60
2023-04-24T07:28:57.539Z,10.70
2023-04-24T07:31:24.398Z,10.90
2023-04-24T07:33:51.460Z,11.00
2023-04-24T07:36:20.282Z,11.10
2023-04-24T07:38:47.264Z,11.30
2023-04-24T07:41:14.830Z,11.50
2023-04-24T07:43:41.943Z,11.70
2023-04-24T07:46:09.510Z,11.90
2023-04-24T07:48:36.463Z,12.00
2023-04-24T07:51:03.357Z,11.90
2023-04-24T07:53:30.043Z,11.80
2023-04-24T07:55:57.364Z,11.90
2023-04-24T07:58:24.066Z,11.80
2023-04-24T08:00:50.778Z,11.70
2023-04-24T08:03:20.552Z,11.70
2023-04-24T08:05:47.822Z,11.70
2023-04-24T08:08:14.790Z,11.50
2023-04-24T08:10:41.630Z,11.50
2023-04-24T08:13:08.367Z,11.40
2023-04-24T08:15:35.536Z,11.40
2023-04-24T08:18:02.362Z,11.30
2023-04-24T08:20:29.222Z,11.30
2023-04-24T08:22:56.177Z,11.30
2023-04-24T08:25:24.139Z,11.40
2023-04-24T08:27:51.030Z,11.40
2023-04-24T08:30:18.238Z,11.60
2023-04-24T08:32:44.915Z,11.80
2023-04-24T08:35:11.720Z,11.90
2023-04-24T08:37:38.787Z,12.10
2023-04-24T08:40:12.742Z,12.20
2023-04-24T08:42:40.826Z,12.20
2023-04-24T08:45:08.256Z,12.00
2023-04-24T08:47:36.680Z,11.90
2023-04-24T08:50:06.743Z,11.70
2023-04-24T08:52:36.438Z,11.60
2023-04-24T08:55:03.669Z,11.40
2023-04-24T08:57:32.063Z,11.40
2023-04-24T08:59:59.370Z,11.40
2023-04-24T09:02:28.096Z,11.10
2023-04-24T09:04:56.634Z,10.70
2023-04-24T09:07:26.145Z,10.30
2023-04-24T09:09:53.370Z,10.20
2023-04-24T09:12:20.056Z,10.30
2023-04-24T09:14:47.352Z,10.40
2023-04-24T09:17:14.150Z,10.60
2023-04-24T09:19:41.881Z,10.80
2023-04-24T09:22:10.580Z,10.80
2023-04-24T09:24:37.469Z,10.90
2023-04-24T09:27:05.068Z,10.80
2023-04-24T09:29:33.783Z,10.70
2023-04-24T09:32:18.568Z,10.60
2023-04-24T09:34:48.684Z,10.60
2023-04-24T09:37:31.120Z,10.80
2023-04-24T09:40:15.702Z,11.00
2023-04-24T09:42:56.752Z,11.10
2023-04-24T09:45:28.399Z,11.20
2023-04-24T09:47:56.734Z,11.30
2023-04-24T09:50:23.829Z,11.50
2023-04-24T09:53:03.373Z,11.60
2023-04-24T09:55:30.847Z,11.80
2023-04-24T09:58:02.136Z,11.90
2023-04-24T10:00:30.921Z,12.00
2023-04-24T10:02:58.551Z,12.10
2023-04-24T10:05:33.687Z,12.30
2023-04-24T10:08:05.252Z,12.30
2023-04-24T10:10:33.180Z,12.40
2023-04-24T10:13:01.536Z,12.60
2023-04-24T10:15:28.731Z,12.60
2023-04-24T10:17:55.753Z,12.70
2023-04-24T10:20:24.442Z,12.80
2023-04-24T10:22:53.053Z,12.70
2023-04-24T10:25:21.720Z,12.50
2023-04-24T10:27:49.856Z,12.70
2023-04-24T10:30:17.639Z,12.90
2023-04-24T10:32:44.703Z,12.90
2023-04-24T10:35:13.923Z,13.00
2023-04-24T10:38:00.371Z,13.00
2023-04-24T10:40:31.512Z,13.10
2023-04-24T10:42:58.981Z,13.00
2023-04-24T10:45:27.044Z,13.00
2023-04-24T10:48:05.019Z,13.30
2023-04-24T10:50:58.938Z,13.60
2023-04-24T10:53:29.202Z,13.80
2023-04-24T10:56:04.251Z,13.80
2023-04-24T10:58:54.328Z,13.90
2023-04-24T11:01:32.975Z,14.10
2023-04-24T11:04:02.298Z,13.70
2023-04-24T11:06:34.305Z,13.20
2023-04-24T11:09:08.313Z,12.90
2023-04-24T11:11:38.095Z,12.60
2023-04-24T11:14:07.481Z,12.10
2023-04-24T11:16:54.156Z,11.30
2023-04-24T11:19:29.478Z,10.20
2023-04-24T11:22:01.555Z,9.70
2023-04-24T11:24:40.731Z,9.40
2023-04-24T11:27:16.140Z,9.30
2023-04-24T11:29:46.110Z,9.10
2023-04-24T11:32:25.438Z,9.30
2023-04-24T11:34:58.072Z,9.50
2023-04-24T11:37:27.481Z,10.00
2023-04-24T11:39:59.607Z,10.50
2023-04-24T11:42:26.727Z,10.90
2023-04-24T11:44:54.159Z,11.40
2023-04-24T11:47:21.704Z,11.70
2023-04-24T11:49:51.485Z,12.00
2023-04-24T11:52:18.219Z,12.00
2023-04-24T11:54:51.519Z,12.10
2023-04-24T11:57:22.831Z,12.10
2023-04-24T11:59:50.388Z,12.20
2023-04-24T12:02:28.037Z,12.30
2023-04-24T12:04:56.091Z,12.20
2023-04-24T12:07:25.348Z,12.30
2023-04-24T12:10:03.538Z,12.60
2023-04-24T12:12:30.486Z,13.00
2023-04-24T12:14:58.861Z,13.50
2023-04-24T12:17:29.388Z,13.80
2023-04-24T12:20:08.084Z,13.90
2023-04-24T12:22:55.839Z,13.90
2023-04-24T12:25:25.322Z,13.60
2023-04-24T12:28:16.757Z,13.50
2023-04-24T12:30:50.036Z,13.50
2023-04-24T12:33:23.252Z,13.50
2023-04-24T12:35:54.274Z,13.60
2023-04-24T12:38:26.248Z,13.60
2023-04-24T12:41:05.098Z,13.70
2023-04-24T12:43:31.957Z,13.90
2023-04-24T12:46:00.005Z,13.90
2023-04-24T12:48:28.064Z,14.00
2023-04-24T12:50:55.057Z,14.20
2023-04-24T12:53:21.823Z,14.30
2023-04-24T12:55:53.605Z,14.10
2023-04-24T12:58:21.314Z,14.00
2023-04-24T13:00:49.160Z,13.80
2023-04-24T13:03:16.286Z,13.60
2023-04-24T13:05:44.188Z,13.60
2023-04-24T13:08:11.062Z,13.60
2023-04-24T13:10:37.991Z,13.60
2023-04-24T13:13:04.725Z,13.50
2023-04-24T13:15:31.584Z,13.50
2023-04-24T13:17:58.367Z,13.30
2023-04-24T13:20:25.093Z,12.90
2023-04-24T13:22:51.754Z,12.20
2023-04-24T13:25:18.983Z,12.20
2023-04-24T13:27:45.684Z,12.20
2023-04-24T13:30:12.770Z,12.20
2023-04-24T13:32:39.447Z,12.20
2023-04-24T13:35:06.544Z,12.10
2023-04-24T13:37:33.227Z,12.00
2023-04-24T13:39:59.956Z,11.80
2023-04-24T13:42:26.669Z,11.50
2023-04-24T13:44:53.356Z,11.60
2023-04-24T13:47:20.075Z,11.80
2023-04-24T13:49:46.841Z,12.20
2023-04-24T13:52:13.580Z,12.70
2023-04-24T13:54:40.320Z,13.20
2023-04-24T13:57:06.989Z,13.70
2023-04-24T13:59:33.687Z,14.00
2023-04-24T14:02:00.463Z,14.30
2023-04-24T14:04:27.397Z,14.50
2023-04-24T14:06:54.270Z,14.10
2023-04-24T14:09:20.932Z,13.80
2023-04-24T14:11:47.687Z,13.40
2023-04-24T14:14:14.381Z,13.20
2023-04-24T14:16:41.286Z,13.00
2023-04-24T14:19:08.173Z,13.00
2023-04-24T14:21:34.859Z,13.30
2023-04-24T14:24:01.621Z,13.50
2023-04-24T14:26:28.502Z,13.60
2023-04-24T14:29:04.021Z,13.60
2023-04-24T14:31:38.111Z,13.40
2023-04-24T14:34:04.808Z,13.30
2023-04-24T14:36:32.466Z,13.20
2023-04-24T14:38:59.265Z,13.00
2023-04-24T14:41:26.000Z,12.90
2023-04-24T14:43:52.653Z,13.00
2023-04-24T14:46:19.368Z,13.00
2023-04-24T14:48:46.064Z,12.90
2023-04-24T14:51:13.116Z,12.90
2023-04-24T14:53:39.942Z,13.20
2023-04-24T14:56:06.911Z,13.50
2023-04-24T14:58:34.042Z,13.40
2023-04-24T15:01:00.825Z,13.40
2023-04-24T15:03:28.031Z,13.30
2023-04-24T15:05:54.911Z,13.10
2023-04-24T15:08:21.630Z,13.10
2023-04-24T15:10:48.704Z,13.20
2023-04-24T15:13:15.409Z,13.20
2023-04-24T15:15:42.099Z,13.10
2023-04-24T15:18:11.735Z,13.10
2023-04-24T15:20:42.336Z,13.10
2023-04-24T15:23:10.496Z,12.90
2023-04-24T15:25:38.962Z,13.00
2023-04-24T15:28:06.317Z,13.00
2023-04-24T15:30:33.126Z,13.10
2023-04-24T15:33:01.549Z,13.20
2023-04-24T15:35:28.342Z,13.10
2023-04-24T15:37:55.598Z,13.00
2023-04-24T15:40:22.505Z,13.00
2023-04-24T15:42:49.278Z,12.90
2023-04-24T15:45:15.947Z,12.90
2023-04-24T15:47:42.741Z,12.80
2023-04-24T15:50:12.046Z,12.60
2023-04-24T15:52:40.487Z,12.70
2023-04-24T15:55:07.529Z,12.80
2023-04-24T15:57:34.260Z,12.90
2023-04-24T16:00:01.091Z,12.80
2023-04-24T16:02:28.059Z,12.70
2023-04-24T16:04:55.104Z,12.70
2023-04-24T16:07:21.852Z,12.60
2023-04-24T16:09:48.666Z,12.40
2023-04-24T16:12:15.573Z,12.40
2023-04-24T16:14:42.213Z,12.40
2023-04-24T16:17:09.347Z,12.30
2023-04-24T16:19:36.074Z,12.30
2023-04-24T16:22:03.556Z,12.40
2023-04-24T16:24:30.313Z,12.50
2023-04-24T16:26:57.584Z,12.50
2023-04-24T16:29:24.512Z,12.50
2023-04-24T16:31:51.511Z,12.50
2023-04-24T16:34:18.232Z,12.70
2023-04-24T16:36:44.952Z,12.60
2023-04-24T16:39:12.150Z,12.70
2023-04-24T16:41:39.250Z,12.50
2023-04-24T16:44:06.370Z,12.50
2023-04-24T16:46:33.104Z,12.50
2023-04-24T16:49:00.211Z,12.40
2023-04-24T16:51:27.858Z,12.50
2023-04-24T16:53:54.718Z,12.50
2023-04-24T16:56:21.516Z,12.50
2023-04-24T16:58:48.445Z,12.50
2023-04-24T17:01:15.352Z,12.30
2023-04-24T17:03:42.155Z,12.20
2023-04-24T17:06:08.968Z,12.10
2023-04-24T17:08:35.645Z,12.00
2023-04-24T17:11:02.302Z,12.00
2023-04-24T17:13:28.959Z,11.90
2023-04-24T17:15:55.639Z,11.80
2023-04-24T17:18:22.325Z,11.80
2023-04-24T17:20:49.034Z,11.80
2023-04-24T17:23:15.840Z,11.80
2023-04-24T17:25:42.644Z,11.80
2023-04-24T17:28:23.759Z,11.80
2023-04-24T17:30:50.563Z,11.80
2023-04-24T17:33:17.227Z,11.70
2023-04-24T17:35:43.909Z,11.60
2023-04-24T17:38:10.924Z,11.50
2023-04-24T17:40:38.433Z,11.50
2023-04-24T17:43:05.314Z,11.50
2023-04-24T17:45:32.371Z,11.40
2023-04-24T17:47:59.130Z,11.30
2023-04-24T17:50:25.959Z,11.20
2023-04-24T17:52:52.626Z,11.00
2023-04-24T17:55:19.395Z,11.00
2023-04-24T17:57:46.080Z,10.90
2023-04-24T18:00:13.412Z,10.90
2023-04-24T18:02:40.301Z,10.80
2023-04-24T18:05:07.364Z,10.80
2023-04-24T18:07:34.142Z,10.70
2023-04-24T18:10:00.821Z,10.60
2023-04-24T18:12:27.830Z,10.50
2023-04-24T18:15:10.454Z,10.40
2023-04-24T18:17:40.165Z,10.40
2023-04-24T18:20:07.596Z,10.30
2023-04-24T18:22:34.315Z,10.30
2023-04-24T18:25:01.333Z,10.20
2023-04-24T18:27:31.040Z,10.10
2023-04-24T18:29:58.446Z,10.00
2023-04-24T18:32:25.423Z,9.90
2023-04-24T18:34:52.320Z,9.90
2023-04-24T18:37:18.945Z,9.80
2023-04-24T18:39:45.617Z,9.80
2023-04-24T18:42:12.335Z,9.70
2023-04-24T18:44:42.734Z,9.70
2023-04-24T18:47:10.499Z,9.70
2023-04-24T18:49:37.536Z,9.70
2023-04-24T18:52:05.014Z,9.70
2023-04-24T18:54:32.176Z,9.60
2023-04-24T18:56:58.844Z,9.50
2023-04-24T18:59:25.826Z,9.40
2023-04-24T19:01:52.781Z,9.40
2023-04-24T19:04:21.616Z,9.30
2023-04-24T19:06:48.355Z,9.30
2023-04-24T19:09:15.155Z,9.30
2023-04-24T19:11:42.109Z,9.30
2023-04-24T19:14:08.969Z,9.30
2023-04-24T19:16:35.734Z,9.20
2023-04-24T19:19:04.937Z,9.10
2023-04-24T19:21:33.513Z,9.10
2023-04-24T19:24:00.596Z,9.10
2023-04-24T19:26:31.106Z,9.00
2023-04-24T19:28:58.894Z,9.00
2023-04-24T19:31:26.304Z,9.00
2023-04-24T19:33:53.236Z,9.00
2023-04-24T19:36:20.289Z,8.90
2023-04-24T19:38:47.646Z,8.90
2023-04-24T19:41:14.430Z,8.80
2023-04-24T19:43:41.107Z,8.70
2023-04-24T19:46:07.956Z,8.70
2023-04-24T19:48:34.764Z,8.60
2023-04-24T19:51:02.802Z,8.50
2023-04-24T19:53:30.076Z,8.50
2023-04-24T19:55:57.185Z,8.50
2023-04-24T19:58:23.850Z,8.40
2023-04-24T20:00:50.713Z,8.40
2023-04-24T20:03:31.255Z,8.40
2023-04-24T20:05:58.609Z,8.30
2023-04-24T20:08:25.657Z,8.20
2023-04-24T20:10:54.206Z,8.30
2023-04-24T20:13:20.884Z,8.20
2023-04-24T20:15:47.667Z,8.10
2023-04-24T20:18:14.426Z,8.00
2023-04-24T20:20:41.625Z,7.80
2023-04-24T20:23:08.475Z,7.80
2023-04-24T20:25:36.185Z,7.60
2023-04-24T20:28:03.073Z,7.60
2023-04-24T20:30:31.464Z,7.50
2023-04-24T20:32:58.542Z,7.40
2023-04-24T20:35:25.272Z,7.30
2023-04-24T20:37:53.648Z,7.30
2023-04-24T20:40:20.437Z,7.30
2023-04-24T20:42:47.093Z,7.20
2023-04-24T20:45:13.864Z,7.30
2023-04-24T20:47:40.673Z,7.40
2023-04-24T20:50:08.457Z,7.60
2023-04-24T20:52:35.261Z,7.70
2023-04-24T20:55:02.052Z,7.70
2023-04-24T20:57:28.946Z,7.70
2023-04-24T20:59:55.752Z,7.70
2023-04-24T21:02:22.554Z,7.60
2023-04-24T21:04:49.283Z,7.40
2023-04-24T21:07:16.373Z,7.30
2023-04-24T21:09:43.048Z,7.30
2023-04-24T21:12:09.782Z,7.10
2023-04-24T21:14:36.549Z,7.00
2023-04-24T21:17:03.396Z,7.00
2023-04-24T21:19:30.211Z,7.10
2023-04-24T21:21:56.898Z,7.00
2023-04-24T21:24:23.605Z,7.00
2023-04-24T21:26:50.501Z,7.10
2023-04-24T21:29:17.403Z,7.20
2023-04-24T21:31:44.435Z,7.30
2023-04-24T21:34:11.246Z,7.30
2023-04-24T21:36:37.927Z,7.30
2023-04-24T21:39:04.558Z,7.40
2023-04-24T21:41:31.372Z,7.40
2023-04-24T21:43:59.159Z,7.30
2023-04-24T21:46:26.638Z,7.40
2023-04-24T21:48:53.410Z,7.40
2023-04-24T21:51:20.466Z,7.30
2023-04-24T21:53:47.336Z,7.10
2023-04-24T21:56:14.385Z,7.00
2023-04-24T21:58:41.702Z,7.00
2023-04-24T22:01:09.366Z,7.10
2023-04-24T22:03:36.283Z,7.00
2023-04-24T22:06:03.128Z,7.00
2023-04-24T22:08:29.898Z,7.00
2023-04-24T22:10:56.627Z,6.90
2023-04-24T22:13:23.323Z,7.00
2023-04-24T22:15:50.790Z,7.10
2023-04-24T22:18:20.290Z,7.10
2023-04-24T22:20:47.228Z,7.20
2023-04-24T22:23:14.349Z,7.20
2023-04-24T22:25:41.010Z,7.10
2023-04-24T22:28:07.771Z,7.10
2023-04-24T22:30:34.436Z,7.00
2023-04-24T22:33:01.155Z,7.10
2023-04-24T22:35:27.862Z,7.00
2023-04-24T22:37:58.130Z,6.90
2023-04-24T22:40:25.453Z,7.00
2023-04-24T22:42:52.508Z,7.00
2023-04-24T22:45:19.555Z,6.80
2023-04-24T22:47:46.373Z,6.60
2023-04-24T22:50:13.875Z,6.60
2023-04-24T22:52:41.611Z,6.60
2023-04-24T22:55:09.341Z,6.60
2023-04-24T22:57:36.618Z,6.50
2023-04-24T23:00:11.029Z,6.60
2023-04-24T23:02:39.171Z,6.50
2023-04-24T23:05:07.448Z,6.40
2023-04-24T23:07:35.420Z,6.50
2023-04-24T23:10:02.296Z,6.50
2023-04-24T23:12:29.046Z,6.40
2023-04-24T23:14:55.897Z,6.40
2023-04-24T23:17:22.888Z,6.40
2023-04-24T23:19:49.681Z,6.40
2023-04-24T23:22:16.446Z,6.50
2023-04-24T23:24:43.234Z,6.60
2023-04-24T23:27:09.874Z,6.50
2023-04-24T23:29:36.512Z,6.50
2023-04-24T23:32:03.642Z,6.50
2023-04-24T23:34:30.373Z,6.40
2023-04-24T23:36:57.197Z,6.40
2023-04-24T23:39:23.864Z,6.30
2023-04-24T23:41:53.568Z,6.40
2023-04-24T23:44:20.340Z,6.50
2023-04-24T23:46:46.966Z,6.50
2023-04-24T23:49:14.688Z,6.60
2023-04-24T23:51:41.454Z,6.50
2023-04-24T23:54:08.953Z,6.40
2023-04-24T23:56:35.692Z,6.40
2023-04-24T23:59:02.359Z,6.40
